Tiempo atmosférico en la estación meteorológica de Baztan, Irurita, Navarra (183 m.)



Fecha
DESCASC
Temp. máxima en grados centígrados (hora)
DESCASC
Temp. mínima en grados centígrados (hora)
DESCASC
Temp. media en grados centígrados
DESCASC
Racha de viento máxima en m/sg (hora)
DESCASC
Velocidad máxima media en intervalos de 10 minutos(hora)
DESCASC
Precipitaciones diarias en mm
DESCASC
Precipitaciones de 00:00 a 06:00 en mm
DESCASC
Precipitaciones de 06:00 a 12:00 en mm
DESCASC
Precipitaciones de 12:00 a 18:00 en mm
DESCASC
Precipitaciones de 18:00 a 24:00 en mm
DESCASC
20-06-2018 33.6 (15:50) 14.3 (01:50) 23.9 7.22 (13:10) 3.06 (18:00) 0 0 0 0 0
19-06-2018 24.5 (17:20) 14.9 (06:00) 19.7 6.94 (12:30) 2.78 (11:50) 0.3 0 0.3 0 0
18-06-2018 20.2 (15:00) 10.1 (02:50) 15.2 4.44 (19:10) 1.94 (19:10) 0 0 0 0 0
17-06-2018 21.8 (15:20) 10.5 (04:00) 16.1 6.67 (15:30) 3.33 (15:40) 0.8 0 0.8 0 0
16-06-2018 20.4 (17:00) 14.1 (23:59) 17.3 6.39 (17:40) 3.33 (17:40) 0.3 0.1 0.2 0 0
15-06-2018 19.8 (14:40) 9.9 (02:20) 14.8 4.44 (15:30) 2.5 (15:40) 0 0 0 0 0
14-06-2018 18.4 (17:50) 11.9 (00:00) 15.1 5.56 (18:30) 2.78 (18:20) 0 0 0 0 0
13-06-2018 16.2 (00:20) 13.8 (08:10) 15 7.22 (07:00) 1.67 (06:00) 17.3 7 7.5 1.4 1.4
12-06-2018 16.2 (14:30) 11.6 (01:10) 13.9 6.67 (23:50) 1.94 (23:50) 48.3 0.5 29.4 16.1 2.3
11-06-2018 20.9 (11:30) 12.2 (23:59) 16.5 7.22 (12:50) 2.78 (12:50) 3 1.6 0 1.4 0
10-06-2018 24.3 (14:10) 11.4 (00:00) 17.8 6.11 (15:40) 2.5 (16:10) 45.5 0 0 0 45.5
09-06-2018 22 (10:20) 14.9 (00:00) 18.4 6.94 (00:30) 3.61 (00:10) 2.8 0 0 2.6 0.2
08-06-2018 26.2 (17:10) 14 (00:00) 20.1 11.67 (14:10) 4.17 (17:40) 0 0 0 0 0
07-06-2018 24.8 (14:50) 13.1 (00:00) 18.9 5.83 (19:40) 2.5 (19:40) 2.1 0 0.1 0.6 1.4
06-06-2018 20.2 (16:50) 13.3 (00:00) 16.8 5.56 (18:30) 3.33 (18:30) 0.5 0.5 0 0 0
05-06-2018 16.8 (19:40) 13.7 (00:00) 15.2 4.17 (19:50) 1.67 (08:30) 14.5 2.5 10.8 1.2 0
04-06-2018 20.7 (13:00) 14.6 (00:00) 17.7 5.28 (13:20) 1.67 (13:20) 21.8 0 3.1 18.7 0
03-06-2018 25.5 (13:20) 12.9 (00:00) 19.2 5.28 (14:00) 2.78 (13:40) 14.3 0 0 9.6 4.7
02-06-2018 25.2 (15:30) 14.9 (00:00) 20.1 5.83 (16:40) 2.78 (15:50) 2.4 2.1 0.3 0 0
01-06-2018 24.8 (14:20) 14.3 (00:00) 19.5 6.94 (14:50) 2.5 (18:10) 16.3 0.7 14.4 0 1.2
31-05-2018 20.1 (15:50) 14.1 (05:40) 17.1 4.17 (14:30) 1.94 (14:40) 0 0 0 0 0
30-05-2018 20.7 (13:50) 13.7 (00:00) 17.2 5.28 (15:30) 2.5 (14:30) 3.4 0.7 1 1.6 0.1
29-05-2018 21.7 (15:50) 13.9 (00:00) 17.8 6.67 (19:10) 3.06 (16:50) 23.5 0 0 1.4 22.1
28-05-2018 16.2 (17:40) 14.1 (00:00) 15.2 2.78 (16:40) 1.39 (02:10) 6 1.2 3.6 0.5 0.7
27-05-2018 20 (13:00) 14.2 (00:00) 17.1 5.28 (15:10) 2.78 (15:10) 0.1 0 0 0 0.1
26-05-2018 24.2 (16:50) 13.7 (00:00) 19 8.89 (18:10) 2.78 (17:00) 24.1 0.3 19.6 1.4 2.8
25-05-2018 23 (15:10) 15.8 (00:00) 19.4 5 (10:20) 2.5 (15:50) 0.5 0 0.5 0 0
24-05-2018 26.7 (14:50) 14.5 (00:00) 20.6 4.72 (15:10) 1.94 (15:10) 0.7 0.2 0 0 0.5
23-05-2018 23.3 (15:10) 9.2 (00:00) 16.2 5.28 (15:20) 1.94 (12:40) 0.4 0 0 0.4 0
22-05-2018 23.6 (16:40) 10.8 (00:00) 17.2 6.11 (18:40) 3.06 (18:30) 0 0 0 0 0

Gráficas

Temp. máximas Temp. mínimas Temp. medias Precipitaciones Rachas de viento máximas Velocidades máximas media en intervalos de 10 minutos

Datos horarios

Fecha y hora oficial Temperatura (ºC) Velocidad del viento (km/h) Dirección del viento Racha (km/h) Dirección de racha Precipitación (mm) Presión (hPa) Tendencia (hPa) Humedad (%)
2018-06-20 23:00:00 21.7 0 Calma 6 Sur 0 -- -- 85
2018-06-20 22:00:00 23.6 0 Calma 12 Sudoeste 0 -- -- 77
2018-06-20 21:00:00 26.1 2 Sur 13 Noroeste 0 -- -- 66
2018-06-20 20:00:00 29.4 6 Nordeste 18 Nordeste 0 -- -- 48
2018-06-20 19:00:00 30.1 8 Nordeste 21 Norte 0 -- -- 47
2018-06-20 18:00:00 30.9 11 Nordeste 21 Norte 0 -- -- 44
2018-06-20 17:00:00 32.3 6 Nordeste 18 Nordeste 0 -- -- 43
2018-06-20 16:00:00 33.1 3 Noroeste 12 Noroeste 0 -- -- 33
2018-06-20 15:00:00 32.6 4 Norte 17 Norte 0 -- -- 34
2018-06-20 14:00:00 32.1 5 Noroeste 26 Sudeste 0 -- -- 35
2018-06-20 13:00:00 31.1 3 Sur 21 Sur 0 -- -- 39
2018-06-20 12:00:00 28.7 2 Noroeste 14 Noroeste 0 -- -- 50
2018-06-20 11:00:00 24 0 Calma 8 Norte 0 -- -- 66
2018-06-20 10:00:00 19.5 0 Calma 6 Noroeste 0 -- -- 83
2018-06-20 09:00:00 16.1 0 Calma 6 Sudeste 0 -- -- 96
2018-06-20 08:00:00 15.5 0 Calma 7 Sur 0 -- -- 96
2018-06-20 07:00:00 15.3 0 Calma 8 Nordeste 0 -- -- 96
2018-06-20 06:00:00 15.4 0 Calma 4 Sudoeste 0 -- -- 96
2018-06-20 05:00:00 15.1 0 Calma 3 Sudoeste 0 -- -- 96
2018-06-20 04:00:00 15.4 0 Calma 3 Sudoeste 0 -- -- 96
2018-06-20 03:00:00 15.2 0 Calma 0 Calma 0 -- -- 96
2018-06-20 02:00:00 14.7 0 Calma 0 Calma 0 -- -- 95
2018-06-20 01:00:00 14.8 0 Calma -- -- 0 -- -- 92
2018-06-20 00:00:00 15.9 0 Calma 2 Este 0 -- -- 92
2018-06-19 23:00:00 17.5 0 Calma 7 Sudoeste 0 -- -- 89
2018-06-19 22:00:00 19.4 0 Calma 5 Norte 0 -- -- 82
2018-06-19 21:00:00 21.2 0 Calma 11 Nordeste 0 -- -- 73
2018-06-19 20:00:00 23.8 6 Nordeste 17 Nordeste 0 -- -- 60
2018-06-19 19:00:00 24 8 Nordeste 17 Este 0 -- -- 59
2018-06-19 18:00:00 24 6 Nordeste 19 Nordeste 0 -- -- 59
2018-06-19 17:00:00 23.6 7 Nordeste 17 Nordeste 0 -- -- 58
2018-06-19 16:00:00 23.2 4 Nordeste 19 Nordeste 0 -- -- 59
2018-06-19 15:00:00 22.5 8 Nordeste 21 Nordeste 0 -- -- 59
2018-06-19 14:00:00 22 7 Nordeste 19 Este 0 -- -- 60
2018-06-19 13:00:00 21.4 8 Nordeste 25 Este 0 -- -- 60
2018-06-19 12:00:00 21.5 9 Nordeste 22 Este 0 -- -- 64
2018-06-19 11:00:00 19 2 Oeste 8 Norte 0 -- -- 77
2018-06-19 10:00:00 17 0 Calma 5 Noroeste 0 -- -- 88
2018-06-19 09:00:00 16.2 0 Calma 3 Sudeste 0 -- -- 91
2018-06-19 08:00:00 15.4 0 Calma 3 Noroeste 0.2 -- -- 94
2018-06-19 07:00:00 15 0 Calma 0 Calma 0.1 -- -- 94
2018-06-19 06:00:00 15 2 Sur 5 Sudeste 0 -- -- 93
2018-06-19 05:00:00 15.3 0 Calma 5 Nordeste 0 -- -- 89
2018-06-19 04:00:00 15.7 0 Calma 7 Sudeste 0 -- -- 89
2018-06-19 03:00:00 15.9 3 Sudeste 8 Este 0 -- -- 88
2018-06-19 02:00:00 16.5 0 Calma 8 Sudeste 0 -- -- 87
2018-06-19 01:00:00 16.6 0 Calma 5 Sudeste 0 -- -- 88
2018-06-19 00:00:00 17 0 Calma 6 Sudeste 0 -- -- 86
2018-06-18 23:00:00 17.2 0 Calma 15 Norte 0 -- -- 85
2018-06-18 22:00:00 17.5 5 Norte 11 Noroeste 0 -- -- 79
2018-06-18 21:00:00 18.7 5 Norte 14 Norte 0 -- -- 73
2018-06-18 20:00:00 19.3 5 Norte 16 Nordeste 0 -- -- 71
2018-06-18 19:00:00 19.5 4 Norte 9 Nordeste 0 -- -- 71
2018-06-18 18:00:00 19.5 4 Noroeste 12 Noroeste 0 -- -- 71
2018-06-18 17:00:00 19.8 2 Noroeste 11 Norte 0 -- -- 72
2018-06-18 16:00:00 19.6 3 Nordeste 12 Nordeste 0 -- -- 70
2018-06-18 15:00:00 20.1 3 Norte 11 Noroeste 0 -- -- 69
2018-06-18 14:00:00 18.4 3 Sudeste 9 Sudeste 0 -- -- 82
2018-06-18 13:00:00 16.9 2 Norte 7 Norte 0 -- -- 82
2018-06-18 12:00:00 16.5 4 Noroeste 10 Noroeste 0 -- -- 82
2018-06-18 11:00:00 16.5 3 Noroeste 6 Norte 0 -- -- 78
2018-06-18 10:00:00 16 0 Calma 4 Nordeste 0 -- -- 77
2018-06-18 09:00:00 14 0 Calma 4 Norte 0 -- -- 86
2018-06-18 08:00:00 12.5 0 Calma 3 Noroeste 0 -- -- 93
2018-06-18 07:00:00 11.8 0 Calma -- -- 0 -- -- 96
2018-06-18 06:00:00 11.5 0 Calma 3 Noroeste 0 -- -- 96
2018-06-18 05:00:00 11.1 0 Calma 3 Noroeste 0 -- -- 96
2018-06-18 04:00:00 10.6 0 Calma 0 Calma 0 -- -- 96
2018-06-18 03:00:00 10.2 0 Calma 2 Noroeste 0 -- -- 95
2018-06-18 02:00:00 10.5 0 Calma 3 Noroeste 0 -- -- 95
2018-06-18 01:00:00 11.3 0 Calma 0 Calma 0 -- -- 93
2018-06-18 00:00:00 12 0 Calma 2 Noroeste 0 -- -- 92
2018-06-17 23:00:00 13 0 Calma 3 Noroeste 0 -- -- 89
2018-06-17 22:00:00 14.7 0 Calma 3 Sudoeste 0 -- -- 84
2018-06-17 21:00:00 16.8 0 Calma 14 Norte 0 -- -- 71
2018-06-17 20:00:00 18.7 7 Norte 19 Norte 0 -- -- 55
2018-06-17 19:00:00 20 9 Norte 19 Norte 0 -- -- 53
2018-06-17 18:00:00 20.8 7 Norte 18 Noroeste 0 -- -- 51
2018-06-17 17:00:00 20.4 9 Norte 21 Norte 0 -- -- 52
2018-06-17 16:00:00 20.2 12 Norte 24 Norte 0 -- -- 52
2018-06-17 15:00:00 21.1 10 Noroeste 18 Noroeste 0 -- -- 49
2018-06-17 14:00:00 20.3 4 Sudeste 11 Sur 0 -- -- 61
2018-06-17 13:00:00 18.5 2 Sudeste 9 Sudoeste 0 -- -- 74
2018-06-17 12:00:00 16.8 3 Sur 8 Sudoeste 0 -- -- 86
2018-06-17 11:00:00 15.5 0 Calma 5 Noroeste 0.4 -- -- 93
2018-06-17 10:00:00 14.3 0 Calma 3 Norte 0.3 -- -- 92
2018-06-17 09:00:00 13.3 0 Calma -- -- 0.1 -- -- 94
2018-06-17 08:00:00 12.3 0 Calma -- -- 0 -- -- 96
2018-06-17 07:00:00 11.8 0 Calma -- -- 0 -- -- 96
2018-06-17 06:00:00 11.4 0 Calma 3 Norte 0 -- -- 96
2018-06-17 05:00:00 11 0 Calma 2 Noroeste 0 -- -- 96
2018-06-17 04:00:00 10.5 0 Calma 2 Noroeste 0 -- -- 94
2018-06-17 03:00:00 11.5 0 Calma 3 Noroeste 0 -- -- 93
2018-06-17 02:00:00 12.4 0 Calma 3 Sudoeste 0 -- -- 92
2018-06-17 01:00:00 13.4 0 Calma 3 Noroeste 0 -- -- 90
2018-06-17 00:00:00 14.2 0 Calma 4 Sudeste 0 -- -- 86
2018-06-16 23:00:00 14.4 0 Calma 2 Este 0 -- -- 85
2018-06-16 22:00:00 14.7 0 Calma 4 Norte 0 -- -- 83
2018-06-16 21:00:00 16.5 0 Calma 11 Norte 0 -- -- 69
2018-06-16 20:00:00 17.5 8 Norte 19 Norte 0 -- -- 61
2018-06-16 19:00:00 18.6 10 Norte 20 Norte 0 -- -- 56
2018-06-16 18:00:00 19.3 12 Norte 23 Norte 0 -- -- 54
2018-06-16 17:00:00 19.3 9 Norte 22 Norte 0 -- -- 55
2018-06-16 16:00:00 19.3 10 Norte 16 Norte 0 -- -- 58
2018-06-16 15:00:00 19.2 0 Calma 13 Sudeste 0 -- -- 62
2018-06-16 14:00:00 17.4 6 Norte 16 Noroeste 0 -- -- 70
2018-06-16 13:00:00 16.6 3 Norte 13 Norte 0 -- -- 74
2018-06-16 12:00:00 16.5 2 Nordeste 15 Nordeste 0 -- -- 77
2018-06-16 11:00:00 16.2 6 Noroeste 12 Noroeste 0 -- -- 79
2018-06-16 10:00:00 15.5 3 Sudeste 5 Sudeste 0 -- -- 92
2018-06-16 09:00:00 15.4 0 Calma 5 Sudeste 0.1 -- -- 94
2018-06-16 08:00:00 15.2 0 Calma 3 Sudeste 0.1 -- -- 95
2018-06-16 07:00:00 15.1 0 Calma 4 Sudeste 0 -- -- 95
2018-06-16 06:00:00 15.2 2 Sudeste 6 Sudeste 0 -- -- 95
2018-06-16 05:00:00 15.4 0 Calma 3 Sur 0 -- -- 95
2018-06-16 04:00:00 15.7 0 Calma 5 Sudeste 0 -- -- 95
2018-06-16 03:00:00 15.9 0 Calma 0 Calma 0 -- -- 95
2018-06-16 02:00:00 15.9 0 Calma 3 Sudeste 0.1 -- -- 95
2018-06-16 01:00:00 16.1 0 Calma 2 Noroeste 0 -- -- 93
2018-06-16 00:00:00 16.2 0 Calma 2 Nordeste 0 -- -- 93
2018-06-15 23:00:00 16.4 0 Calma 2 Noroeste 0 -- -- 93
2018-06-15 22:00:00 16.9 0 Calma 6 Sudeste 0 -- -- 87
2018-06-15 21:00:00 17.6 0 Calma 4 Sudeste 0 -- -- 85
2018-06-15 20:00:00 17.7 2 Nordeste 8 Este 0 -- -- 85
2018-06-15 19:00:00 17.8 0 Calma 6 Sudeste 0 -- -- 82
2018-06-15 18:00:00 17.9 4 Sudeste 10 Norte 0 -- -- 83
2018-06-15 17:00:00 17.7 5 Noroeste 14 Noroeste 0 -- -- 73
2018-06-15 16:00:00 18.6 4 Norte 16 Norte 0 -- -- 68
2018-06-15 15:00:00 19.1 6 Norte 11 Noroeste 0 -- -- 64
2018-06-15 14:00:00 19.5 2 Sudeste 7 Sudeste 0 -- -- 68
2018-06-15 13:00:00 18.3 2 Oeste 6 Sudoeste 0 -- -- 68
2018-06-15 12:00:00 15.3 0 Calma 4 Noroeste 0 -- -- 78
2018-06-15 11:00:00 13.7 0 Calma 4 Noroeste 0 -- -- 85
2018-06-15 10:00:00 12.3 0 Calma 4 Noroeste 0 -- -- 90
2018-06-15 09:00:00 11.7 0 Calma 3 Nordeste 0 -- -- 94
2018-06-15 08:00:00 10.5 0 Calma 5 Este 0 -- -- 96
2018-06-15 07:00:00 10.3 0 Calma 2 Sudoeste 0 -- -- 97
2018-06-15 06:00:00 10.2 0 Calma 5 Sudoeste 0 -- -- 97
2018-06-15 05:00:00 10.4 0 Calma 3 Nordeste 0 -- -- 97
2018-06-15 04:00:00 10.4 0 Calma 3 Sudoeste 0 -- -- 96
2018-06-15 03:00:00 10.1 0 Calma 2 Sudoeste 0 -- -- 95
2018-06-15 02:00:00 10.3 0 Calma 2 Oeste 0 -- -- 94
2018-06-15 01:00:00 10.7 0 Calma 3 Sudeste 0 -- -- 92
2018-06-15 00:00:00 11.9 0 Calma 3 Sur 0 -- -- 92
2018-06-14 23:00:00 13.4 0 Calma 4 Noroeste 0 -- -- 88
2018-06-14 22:00:00 14.8 0 Calma 13 Nordeste 0 -- -- 80
2018-06-14 21:00:00 16.7 6 Norte 16 Norte 0 -- -- 67
2018-06-14 20:00:00 17.6 7 Norte 18 Norte 0 -- -- 67
2018-06-14 19:00:00 17.5 6 Nordeste 20 Norte 0 -- -- 68
2018-06-14 18:00:00 17.8 6 Norte 18 Noroeste 0 -- -- 66
2018-06-14 17:00:00 18 6 Norte 14 Norte 0 -- -- 65
2018-06-14 16:00:00 17.7 6 Noroeste 13 Noroeste 0 -- -- 68
2018-06-14 15:00:00 17.5 3 Sudoeste 17 Noroeste 0 -- -- 70
2018-06-14 14:00:00 16.5 5 Norte 17 Norte 0 -- -- 74
2018-06-14 13:00:00 15.9 7 Norte 18 Norte 0 -- -- 74
2018-06-14 12:00:00 15.9 4 Norte 13 Norte 0 -- -- 77
2018-06-14 11:00:00 15.6 0 Calma 5 Sudeste 0 -- -- 83
2018-06-14 10:00:00 14.3 0 Calma 5 Sur 0 -- -- 95
2018-06-14 09:00:00 13.7 0 Calma 6 Sur 0 -- -- 96
2018-06-14 08:00:00 13.3 0 Calma 6 Noroeste 0 -- -- 96
2018-06-14 07:00:00 13.1 0 Calma 5 Noroeste 0 -- -- 96
2018-06-14 06:00:00 13 0 Calma 5 Sudoeste 0 -- -- 96
2018-06-14 05:00:00 13.1 2 Sudoeste 6 Sudoeste 0 -- -- 96
2018-06-14 04:00:00 13.3 0 Calma 4 Sur 0 -- -- 96
2018-06-14 03:00:00 13.5 0 Calma 8 Noroeste 0 -- -- 96
2018-06-14 02:00:00 13.7 0 Calma 5 Sur 0 -- -- 96
2018-06-14 01:00:00 13.8 2 Sur 6 Sur 0 -- -- 96
2018-06-14 00:00:00 13.8 0 Calma 3 Sudoeste 0 -- -- 96
2018-06-13 23:00:00 13.9 0 Calma 8 Sudoeste 0.1 -- -- 95
2018-06-13 22:00:00 13.9 3 Sudoeste 12 Sur 0.1 -- -- 94
2018-06-13 21:00:00 14.2 3 Sudoeste 9 Oeste 0.5 -- -- 94
2018-06-13 20:00:00 14.6 2 Nordeste 8 Sudoeste 0.5 -- -- 93
2018-06-13 19:00:00 14.8 4 Sur 11 Sudoeste 0.2 -- -- 90
2018-06-13 18:00:00 15.5 0 Calma 17 Noroeste 0 -- -- 84
2018-06-13 17:00:00 15.8 5 Noroeste 15 Noroeste 0 -- -- 82
2018-06-13 16:00:00 15 0 Calma 12 Oeste 0 -- -- 92
2018-06-13 15:00:00 14.6 3 Sur 10 Noroeste 0.3 -- -- 93
2018-06-13 14:00:00 14.3 5 Sur 8 Sur 0.2 -- -- 95
2018-06-13 13:00:00 14.2 6 Oeste 23 Noroeste 0.9 -- -- 90
2018-06-13 12:00:00 14.6 3 Sudeste 12 Norte 1 -- -- 94
2018-06-13 11:00:00 14.6 2 Noroeste 17 Noroeste 1.7 -- -- 92
2018-06-13 10:00:00 14.7 3 Sudoeste 14 Oeste 1.6 -- -- 93
2018-06-13 09:00:00 14.4 0 Calma 13 Sur 0.9 -- -- 93
2018-06-13 08:00:00 13.9 3 Oeste 19 Noroeste 1.2 -- -- 93
2018-06-13 07:00:00 14.2 5 Oeste 26 Oeste 1.1 -- -- 92
2018-06-13 06:00:00 14.6 6 Noroeste 24 Norte 1.1 -- -- 92
2018-06-13 05:00:00 14.5 5 Oeste 18 Sudoeste 2.6 -- -- 94
2018-06-13 04:00:00 14.5 3 Sudoeste 15 Noroeste 1.4 -- -- 94
2018-06-13 03:00:00 -- 0 Calma 11 Sudoeste 1.2 -- -- --
2018-06-13 02:00:00 15.1 2 Oeste 13 Sudoeste 0.7 -- -- 89
2018-06-13 01:00:00 16 2 Sudoeste 25 Noroeste 0 -- -- 80
2018-06-13 00:00:00 16 5 Noroeste 24 Norte 0 -- -- 79
2018-06-12 23:00:00 15.5 3 Noroeste 18 Noroeste 0.3 -- -- 84
2018-06-12 22:00:00 15.5 3 Noroeste 15 Norte 0.1 -- -- 83
2018-06-12 21:00:00 15.1 4 Noroeste 16 Noroeste 0.1 -- -- 86
2018-06-12 20:00:00 15.1 2 Oeste 18 Noroeste 0.2 -- -- 88
2018-06-12 19:00:00 14.9 3 Oeste 22 Noroeste 1.6 -- -- 87
2018-06-12 18:00:00 15.1 3 Noroeste 17 Noroeste 4.1 -- -- 89
2018-06-12 17:00:00 15.2 5 Sudoeste 19 Sur 3.1 -- -- 92
2018-06-12 16:00:00 15.4 2 Oeste 18 Sudoeste 0.3 -- -- 88
2018-06-12 15:00:00 15.5 4 Noroeste 23 Oeste 0.4 -- -- 85
2018-06-12 14:00:00 15.3 3 Sudoeste 14 Sur 3 -- -- 93
2018-06-12 13:00:00 14.1 3 Nordeste 12 Oeste 5.2 -- -- 94
2018-06-12 12:00:00 14.1 0 Calma 14 Noroeste 2.3 -- -- 91
2018-06-12 11:00:00 14 3 Sudoeste 15 Sudoeste 2.8 -- -- 93
2018-06-12 10:00:00 14 3 Sudoeste 15 Sudoeste 4.3 -- -- 97
2018-06-12 09:00:00 13.4 0 Calma 10 Sudoeste 10.1 -- -- 97
2018-06-12 08:00:00 12.8 0 Calma 5 Noroeste 6.8 -- -- 96
2018-06-12 07:00:00 12.5 0 Calma 3 Sur 3.1 -- -- 96
2018-06-12 06:00:00 12.3 0 Calma 5 Sudoeste 0.5 -- -- 96
2018-06-12 05:00:00 12.2 0 Calma 2 Sudoeste 0 -- -- 96
2018-06-12 04:00:00 12 0 Calma 4 Noroeste 0 -- -- 96
2018-06-12 03:00:00 12.1 0 Calma -- -- 0 -- -- 96
2018-06-12 02:00:00 12.1 0 Calma 3 Sur 0 -- -- 96
2018-06-12 01:00:00 11.7 0 Calma 6 Norte 0 -- -- 95
2018-06-12 00:00:00 12.3 0 Calma 4 Sudeste 0 -- -- 94
2018-06-11 23:00:00 13.3 0 Calma 4 Norte 0 -- -- 92
2018-06-11 22:00:00 15.1 0 Calma 4 Norte 0 -- -- 86
2018-06-11 21:00:00 16.9 2 Sur 8 Sudeste 0 -- -- 78
2018-06-11 20:00:00 17.5 0 Calma 6 Norte 0 -- -- 75
2018-06-11 19:00:00 17.7 3 Nordeste 8 Nordeste 0 -- -- 69
2018-06-11 18:00:00 16.8 2 Este 14 Sudeste 0 -- -- 74
2018-06-11 17:00:00 16.3 6 Sur 14 Sur 0 -- -- 80
2018-06-11 16:00:00 17.4 4 Sur 14 Norte 0 -- -- 77
2018-06-11 15:00:00 17.5 6 Norte 18 Norte 0 -- -- 77
2018-06-11 14:00:00 16.7 4 Sudoeste 14 Sudoeste 1 -- -- 89
2018-06-11 13:00:00 17.2 6 Noroeste 26 Noroeste 0.4 -- -- 73
2018-06-11 12:00:00 19.7 5 Noroeste 13 Noroeste 0 -- -- 64
2018-06-11 11:00:00 19.2 0 Calma 9 Sudeste 0 -- -- 71
2018-06-11 10:00:00 16.2 0 Calma 5 Noroeste 0 -- -- 88
2018-06-11 09:00:00 14.5 0 Calma 4 Noroeste 0 -- -- 91
2018-06-11 08:00:00 13.5 0 Calma 8 Sudoeste 0 -- -- 96
2018-06-11 07:00:00 13.2 3 Sudoeste 8 Sudoeste 0 -- -- 96
2018-06-11 06:00:00 13.5 0 Calma 4 Noroeste 0 -- -- 96
2018-06-11 05:00:00 13.5 0 Calma 3 Noroeste 0 -- -- 96
2018-06-11 04:00:00 14 0 Calma 0 Calma 0 -- -- 96
2018-06-11 03:00:00 14.7 0 Calma 5 Sur 0 -- -- 96
2018-06-11 02:00:00 14.7 0 Calma 7 Oeste 0.1 -- -- 96
2018-06-11 01:00:00 14.8 3 Sur 7 Sur 1.5 -- -- 96
2018-06-11 00:00:00 15 0 Calma 8 Norte 0.3 -- -- 95
2018-06-10 23:00:00 15.1 0 Calma 4 Noroeste 0.4 -- -- 95
2018-06-10 22:00:00 15.4 0 Calma 18 Sudoeste 0.6 -- -- 93
2018-06-10 21:00:00 15.8 8 Sur 15 Sudoeste 1.8 -- -- 93
2018-06-10 20:00:00 17.6 3 Sur 8 Sudoeste 36.8 -- -- 94
2018-06-10 19:00:00 18.1 5 Sudeste 14 Norte 5.6 -- -- 85
2018-06-10 18:00:00 21 0 Calma 13 Este 0 -- -- 64
2018-06-10 17:00:00 21.3 2 Nordeste 20 Este 0 -- -- 62
2018-06-10 16:00:00 21.3 5 Nordeste 22 Noroeste 0 -- -- 63
2018-06-10 15:00:00 22.7 4 Este 15 Sudeste 0 -- -- 55
2018-06-10 14:00:00 23.4 3 Norte 8 Noroeste 0 -- -- 48
2018-06-10 13:00:00 22.6 3 Noroeste 9 Sur 0 -- -- 52
2018-06-10 12:00:00 21.9 0 Calma 8 Sur 0 -- -- 62
2018-06-10 11:00:00 20.1 0 Calma 4 Norte 0 -- -- 72
2018-06-10 10:00:00 19.1 0 Calma 6 Sudeste 0 -- -- 70
2018-06-10 09:00:00 16.7 0 Calma 5 Norte 0 -- -- 82
2018-06-10 08:00:00 14 0 Calma 6 Sudoeste 0 -- -- 94
2018-06-10 07:00:00 11.5 0 Calma 4 Sur 0 -- -- 96
2018-06-10 06:00:00 12.1 0 Calma 4 Noroeste 0 -- -- 95
2018-06-10 05:00:00 13 0 Calma 7 Sur 0 -- -- 95
2018-06-10 04:00:00 14 0 Calma 6 Norte 0 -- -- 92
2018-06-10 03:00:00 15.7 0 Calma 12 Sudoeste 0 -- -- 85
2018-06-10 02:00:00 17.1 5 Sur 11 Sur 0 -- -- 79
2018-06-10 01:00:00 16.6 2 Sur 12 Sudeste 0 -- -- 90
2018-06-10 00:00:00 16.4 0 Calma 12 Sudoeste 0 -- -- 92
2018-06-09 23:00:00 17 0 Calma 11 Noroeste 0.1 -- -- 91
2018-06-09 22:00:00 17.9 6 Norte 19 Este 0.1 -- -- 89
2018-06-09 21:00:00 19 0 Calma 6 Sudeste 0 -- -- 91
2018-06-09 20:00:00 19.3 2 Nordeste 6 Nordeste 0 -- -- 89
2018-06-09 19:00:00 19.2 0 Calma 5 Sur 0 -- -- 89
2018-06-09 18:00:00 19 4 Sudeste 11 Nordeste 0 -- -- 89
2018-06-09 17:00:00 19.2 5 Nordeste 11 Nordeste 1.9 -- -- 90
2018-06-09 16:00:00 19.1 0 Calma 7 Nordeste 0.7 -- -- 86
2018-06-09 15:00:00 20.2 4 Sudeste 10 Sudeste 0 -- -- 77
2018-06-09 14:00:00 20.5 3 Sudoeste 15 Oeste 0 -- -- 70
2018-06-09 13:00:00 20.6 3 Sudoeste 11 Sur 0 -- -- 72
2018-06-09 12:00:00 20 3 Sudeste 16 Noroeste 0 -- -- 75
2018-06-09 11:00:00 18.8 9 Noroeste 21 Noroeste 0 -- -- 73
2018-06-09 10:00:00 20.7 0 Calma 6 Noroeste 0 -- -- 71
2018-06-09 09:00:00 18.1 0 Calma 4 Norte 0 -- -- 85
2018-06-09 08:00:00 16.2 0 Calma 7 Noroeste 0 -- -- 92
2018-06-09 07:00:00 15.1 0 Calma 7 Noroeste 0 -- -- 92
2018-06-09 06:00:00 15.4 0 Calma 7 Noroeste 0 -- -- 92
2018-06-09 05:00:00 15.7 0 Calma 18 Sudeste 0 -- -- 88
2018-06-09 04:00:00 16.8 2 Este 10 Noroeste 0 -- -- 82
2018-06-09 03:00:00 17.9 2 Sudeste 20 Sudeste 0 -- -- 74
2018-06-09 02:00:00 19.4 8 Sudeste 25 Sudeste 0 -- -- 65
2018-06-09 01:00:00 19.8 6 Sur 25 Sudeste 0 -- -- 65
2018-06-09 00:00:00 20.2 4 Sur 17 Este 0 -- -- 66
2018-06-08 23:00:00 21.1 6 Sur 25 Sudoeste 0 -- -- 60
2018-06-08 22:00:00 20.7 4 Sur 17 Sudoeste 0 -- -- 63
2018-06-08 21:00:00 22.7 5 Sur 20 Sur 0 -- -- 51
2018-06-08 20:00:00 23.1 11 Sur 30 Sudeste 0 -- -- 48
2018-06-08 19:00:00 23.7 10 Sur 25 Sur 0 -- -- 48
2018-06-08 18:00:00 24.3 9 Sur 33 Sur 0 -- -- 48
2018-06-08 17:00:00 24.9 10 Sur 27 Sudoeste 0 -- -- 46
2018-06-08 16:00:00 23.5 6 Sur 27 Sudoeste 0 -- -- 49
2018-06-08 15:00:00 23.2 8 Sur 42 Sudoeste 0 -- -- 48
2018-06-08 14:00:00 22.8 13 Sur 35 Sudoeste 0 -- -- 48
2018-06-08 13:00:00 21.9 3 Sudeste 16 Este 0 -- -- 66
2018-06-08 12:00:00 19.7 0 Calma 6 Sudeste 0 -- -- 78
2018-06-08 11:00:00 17.1 0 Calma 4 Sur 0 -- -- 86
2018-06-08 10:00:00 15.8 0 Calma 4 Norte 0 -- -- 92
2018-06-08 09:00:00 14.9 0 Calma 4 Nordeste 0 -- -- 94
2018-06-08 08:00:00 14.3 0 Calma 5 Sudeste 0 -- -- 95
2018-06-08 07:00:00 14.1 0 Calma 6 Nordeste 0 -- -- 95
2018-06-08 06:00:00 14.3 0 Calma 5 Sudoeste 0 -- -- 95
2018-06-08 05:00:00 14.7 2 Sur 6 Sudeste 0 -- -- 95
2018-06-08 04:00:00 15.3 0 Calma 5 Norte 0 -- -- 95
2018-06-08 03:00:00 15.6 0 Calma 4 Sudeste 0 -- -- 96
2018-06-08 02:00:00 15.8 0 Calma 3 Norte 0 -- -- 96
2018-06-08 01:00:00 15.9 0 Calma 3 Noroeste 0 -- -- 95
2018-06-08 00:00:00 16 0 Calma 3 Este 0 -- -- 94
2018-06-07 23:00:00 16.3 0 Calma 3 Sudoeste 0 -- -- 93
2018-06-07 22:00:00 16.8 0 Calma 3 Noroeste 0 -- -- 91
2018-06-07 21:00:00 17.4 0 Calma 6 Sudeste 0.1 -- -- 89
2018-06-07 20:00:00 18.1 5 Noroeste 21 Noroeste 1.3 -- -- 80
2018-06-07 19:00:00 22.6 7 Nordeste 13 Nordeste 0 -- -- 53
2018-06-07 18:00:00 22.9 3 Norte 8 Sudeste 0 -- -- 58
2018-06-07 17:00:00 21.1 4 Sudoeste 10 Noroeste 0.6 -- -- 77
2018-06-07 16:00:00 23.2 8 Nordeste 15 Este 0 -- -- 49
2018-06-07 15:00:00 24.5 5 Norte 14 Norte 0 -- -- 45
2018-06-07 14:00:00 23.3 2 Este 11 Sudeste 0 -- -- 48
2018-06-07 13:00:00 23.1 4 Este 13 Nordeste 0 -- -- 54
2018-06-07 12:00:00 20.6 4 Norte 8 Norte 0 -- -- 56
2018-06-07 11:00:00 19.7 0 Calma 9 Nordeste 0 -- -- 65
2018-06-07 10:00:00 16.8 0 Calma 4 Este 0.1 -- -- 85
2018-06-07 09:00:00 15.2 0 Calma 4 Noroeste 0 -- -- 91
2018-06-07 08:00:00 14 0 Calma 0 Calma 0 -- -- 95
2018-06-07 07:00:00 13.7 0 Calma 3 Sudeste 0 -- -- 95
2018-06-07 06:00:00 13.6 0 Calma 0 Calma 0 -- -- 94
2018-06-07 05:00:00 13.6 0 Calma 3 Noroeste 0 -- -- 94
2018-06-07 04:00:00 13.5 0 Calma 3 Norte 0 -- -- 94
2018-06-07 03:00:00 13.4 0 Calma 3 Noroeste 0 -- -- 94
2018-06-07 02:00:00 13.5 0 Calma 3 Norte 0 -- -- 92
2018-06-07 01:00:00 14.6 0 Calma 2 Noroeste 0 -- -- 89
2018-06-07 00:00:00 15 0 Calma 5 Noroeste 0 -- -- 88
2018-06-06 23:00:00 15.3 0 Calma 6 Noroeste 0 -- -- 83
2018-06-06 22:00:00 16.2 0 Calma 4 Noroeste 0 -- -- 78
2018-06-06 21:00:00 17.2 3 Noroeste 17 Noroeste 0 -- -- 64
2018-06-06 20:00:00 18.3 5 Norte 13 Norte 0 -- -- 62
2018-06-06 19:00:00 18.3 6 Norte 20 Noroeste 0 -- -- 63
2018-06-06 18:00:00 18.2 9 Norte 17 Noroeste 0 -- -- 63
2018-06-06 17:00:00 19.5 3 Sudoeste 8 Sudoeste 0 -- -- 64
2018-06-06 16:00:00 18 5 Nordeste 8 Nordeste 0 -- -- 64
2018-06-06 15:00:00 17.9 2 Norte 10 Este 0 -- -- 60
2018-06-06 14:00:00 18.7 2 Sudoeste 9 Sudeste 0 -- -- 60
2018-06-06 13:00:00 16.7 3 Noroeste 6 Noroeste 0 -- -- 71
2018-06-06 12:00:00 15.9 0 Calma 4 Sudeste 0 -- -- 76
2018-06-06 11:00:00 15.3 0 Calma 4 Este 0 -- -- 83
2018-06-06 10:00:00 14.5 0 Calma 3 Sudeste 0 -- -- 92
2018-06-06 09:00:00 14.1 0 Calma 2 Norte 0 -- -- 94
2018-06-06 08:00:00 13.6 0 Calma 2 Norte 0 -- -- 96
2018-06-06 07:00:00 13.5 0 Calma 3 Norte 0 -- -- 96
2018-06-06 06:00:00 13.3 0 Calma 3 Sudeste 0.4 -- -- 95
2018-06-06 05:00:00 13.5 0 Calma 4 Sudeste 0.1 -- -- 96
2018-06-06 04:00:00 13.6 0 Calma 4 Nordeste 0 -- -- 95
2018-06-06 03:00:00 13.6 0 Calma 3 Noroeste 0 -- -- 95
2018-06-06 02:00:00 13.6 0 Calma 3 Nordeste 0 -- -- 95
2018-06-06 01:00:00 13.9 0 Calma 3 Sudeste 0 -- -- 95
2018-06-06 00:00:00 14.1 0 Calma 3 Sudeste 0 -- -- 93
2018-06-05 23:00:00 14.3 0 Calma 4 Noroeste 0 -- -- 92
2018-06-05 22:00:00 14.5 0 Calma 6 Sudeste 0 -- -- 89
2018-06-05 21:00:00 15.5 0 Calma 7 Sudeste 0 -- -- 85
2018-06-05 20:00:00 15.8 3 Sudeste 15 Este 0 -- -- 80
2018-06-05 19:00:00 16.3 2 Este 9 Sur 0 -- -- 82
2018-06-05 18:00:00 15.6 3 Sudeste 10 Sudeste 0 -- -- 85
2018-06-05 17:00:00 15.8 0 Calma 6 Sudeste 0.1 -- -- 84
2018-06-05 16:00:00 16.1 2 Nordeste 6 Sudeste 0 -- -- 80
2018-06-05 15:00:00 16.2 3 Este 10 Este 0.1 -- -- 86
2018-06-05 14:00:00 14.5 3 Sudeste 8 Sudoeste 0.1 -- -- 93
2018-06-05 13:00:00 14.5 3 Sudoeste 9 Sur 0.9 -- -- 92
2018-06-05 12:00:00 14.4 2 Sudoeste 9 Sudoeste 0.2 -- -- 92
2018-06-05 11:00:00 14.6 3 Sudoeste 10 Sur 0.4 -- -- 95
2018-06-05 10:00:00 14.4 0 Calma 6 Este 1.3 -- -- 95
2018-06-05 09:00:00 14 0 Calma 14 Sudoeste 7.5 -- -- 94
2018-06-05 08:00:00 13.8 2 Noroeste 5 Noroeste 0.1 -- -- 96
2018-06-05 07:00:00 13.8 4 Sudoeste 9 Sudoeste 1.3 -- -- 96
2018-06-05 06:00:00 14.1 3 Noroeste 6 Noroeste 1.7 -- -- 96
2018-06-05 05:00:00 14.3 0 Calma 3 Noroeste 0.2 -- -- 96
2018-06-05 04:00:00 14.5 0 Calma 3 Sudeste 0.3 -- -- 95
2018-06-05 03:00:00 14.6 0 Calma 2 Este 0.3 -- -- 95
2018-06-05 02:00:00 15 0 Calma 4 Nordeste 0 -- -- 95
2018-06-05 01:00:00 15 0 Calma 3 Sudoeste 0 -- -- 95
2018-06-05 00:00:00 15.1 0 Calma 3 Sudoeste 0 -- -- 95
2018-06-04 23:00:00 15.2 0 Calma 3 Sudoeste 0 -- -- 94
2018-06-04 22:00:00 15.6 0 Calma 3 Sudeste 0 -- -- 92
2018-06-04 21:00:00 15.9 0 Calma 5 Sudeste 0 -- -- 90
2018-06-04 20:00:00 16.2 0 Calma 5 Este 0 -- -- 92
2018-06-04 19:00:00 16.3 3 Sudeste 10 Sudeste 0 -- -- 92
2018-06-04 18:00:00 16.4 3 Nordeste 9 Nordeste 0 -- -- 87
2018-06-04 17:00:00 16.9 2 Nordeste 8 Sudeste 3.4 -- -- 89
2018-06-04 16:00:00 16.9 0 Calma 9 Sudeste 0 -- -- 91
2018-06-04 15:00:00 17.3 2 Sudeste 6 Sudeste 5.6 -- -- 91
2018-06-04 14:00:00 17 2 Sudoeste 19 Noroeste 9.7 -- -- 89
2018-06-04 13:00:00 20.1 4 Norte 10 Norte 0 -- -- 69
2018-06-04 12:00:00 19.2 0 Calma 9 Sur 0 -- -- 79
2018-06-04 11:00:00 18 0 Calma 5 Sudoeste 0 -- -- 89
2018-06-04 10:00:00 16.3 0 Calma 6 Norte 0.8 -- -- 95
2018-06-04 09:00:00 15.7 0 Calma 4 Noroeste 0.7 -- -- 95
2018-06-04 08:00:00 15.1 0 Calma 5 Nordeste 1.6 -- -- 95
2018-06-04 07:00:00 14.8 0 Calma 3 Sudoeste 0 -- -- 96
2018-06-04 06:00:00 14.8 0 Calma 3 Oeste 0 -- -- 96
2018-06-04 05:00:00 15.1 0 Calma 8 Sudoeste 0 -- -- 95
2018-06-04 04:00:00 15.2 0 Calma 6 Sudoeste 0 -- -- 96
2018-06-04 03:00:00 15.1 0 Calma 3 Noroeste 0 -- -- 96
2018-06-04 02:00:00 15.2 0 Calma 2 Noroeste 0 -- -- 96
2018-06-04 01:00:00 15.2 0 Calma 3 Sudoeste 0 -- -- 95
2018-06-04 00:00:00 15.3 0 Calma 6 Noroeste 0 -- -- 96
2018-06-03 23:00:00 15.8 3 Sur 7 Sur 0 -- -- 95
2018-06-03 22:00:00 16.2 0 Calma 4 Noroeste 0 -- -- 93
2018-06-03 21:00:00 17 0 Calma 4 Noroeste 0.5 -- -- 93
2018-06-03 20:00:00 17.1 0 Calma 12 Sudoeste 3.1 -- -- 93
2018-06-03 19:00:00 17.5 0 Calma 10 Noroeste 1.1 -- -- 92
2018-06-03 18:00:00 17.5 0 Calma 19 Sudoeste 2.9 -- -- 90
2018-06-03 17:00:00 18.4 3 Noroeste 10 Sudoeste 6.4 -- -- 89
2018-06-03 16:00:00 19.9 3 Sudoeste 8 Sudoeste 0.3 -- -- 84
2018-06-03 15:00:00 20.4 4 Este 17 Nordeste 0 -- -- 63
2018-06-03 14:00:00 23.7 8 Nordeste 19 Nordeste 0 -- -- 52
2018-06-03 13:00:00 24.8 6 Noroeste 19 Noroeste 0 -- -- 48
2018-06-03 12:00:00 23.6 6 Noroeste 14 Noroeste 0 -- -- 52
2018-06-03 11:00:00 21.3 2 Norte 5 Norte 0 -- -- 68
2018-06-03 10:00:00 18.1 0 Calma 6 Nordeste 0 -- -- 78
2018-06-03 09:00:00 14.2 0 Calma 4 Sudeste 0 -- -- 96
2018-06-03 08:00:00 13.4 0 Calma 5 Sudeste 0 -- -- 96
2018-06-03 07:00:00 13.3 0 Calma 4 Sudoeste 0 -- -- 96
2018-06-03 06:00:00 13.4 0 Calma 3 Nordeste 0 -- -- 96
2018-06-03 05:00:00 13.4 0 Calma 4 Sudeste 0 -- -- 96
2018-06-03 04:00:00 12.9 2 Norte 5 Norte 0 -- -- 96
2018-06-03 03:00:00 13.3 0 Calma 4 Sur 0 -- -- 95
2018-06-03 02:00:00 13.5 0 Calma 3 Sudoeste 0 -- -- 93
2018-06-03 01:00:00 14.5 0 Calma 3 Oeste 0 -- -- 92
2018-06-03 00:00:00 15.8 0 Calma 5 Sudoeste 0 -- -- 89
2018-06-02 23:00:00 17.4 5 Sudoeste 11 Sur 0 -- -- 80
2018-06-02 22:00:00 18.4 9 Sudoeste 18 Sudoeste 0 -- -- 79
2018-06-02 21:00:00 19.6 4 Sudoeste 9 Sudoeste 0 -- -- 79
2018-06-02 20:00:00 20.6 0 Calma 13 Nordeste 0 -- -- 77
2018-06-02 19:00:00 21.7 3 Nordeste 14 Este 0 -- -- 64
2018-06-02 18:00:00 24.1 4 Nordeste 13 Nordeste 0 -- -- 54
2018-06-02 17:00:00 23.6 5 Nordeste 21 Este 0 -- -- 56
2018-06-02 16:00:00 24.5 8 Nordeste 19 Nordeste 0 -- -- 56
2018-06-02 15:00:00 24.3 5 Nordeste 18 Nordeste 0 -- -- 56
2018-06-02 14:00:00 24.2 4 Este 17 Este 0 -- -- 60
2018-06-02 13:00:00 23.4 4 Este 15 Sudeste 0 -- -- 60
2018-06-02 12:00:00 21.8 2 Norte 8 Nordeste 0 -- -- 61
2018-06-02 11:00:00 20.8 3 Noroeste 9 Noroeste 0 -- -- 70
2018-06-02 10:00:00 18.8 0 Calma 4 Norte 0 -- -- 83
2018-06-02 09:00:00 16.5 0 Calma 6 Sudoeste 0 -- -- 94
2018-06-02 08:00:00 15.3 3 Sudoeste 8 Sudoeste 0.1 -- -- 96
2018-06-02 07:00:00 15 0 Calma 10 Sudoeste 0.2 -- -- 96
2018-06-02 06:00:00 15.8 0 Calma 6 Sudeste 0.2 -- -- 96
2018-06-02 05:00:00 15.9 2 Norte 10 Sudeste 1.6 -- -- 96
2018-06-02 04:00:00 15.9 2 Sur 5 Sudeste 0.3 -- -- 96
2018-06-02 03:00:00 15.9 0 Calma 10 Sudoeste 0 -- -- 95
2018-06-02 02:00:00 15.8 0 Calma 9 Sudoeste 0 -- -- 93
2018-06-02 01:00:00 16.7 0 Calma 6 Sudoeste 0 -- -- 94
2018-06-02 00:00:00 17.2 0 Calma 3 Este 0 -- -- 94
2018-06-01 23:00:00 17.1 0 Calma 11 Sudoeste 0 -- -- 93
2018-06-01 22:00:00 17.7 2 Sudoeste 6 Sudoeste 0.1 -- -- 93
2018-06-01 21:00:00 18.3 0 Calma 15 Sudoeste 1.1 -- -- 90
2018-06-01 20:00:00 20 2 Oeste 9 Sudoeste 0 -- -- 79
2018-06-01 19:00:00 22 3 Sudeste 21 Nordeste 0 -- -- 68
2018-06-01 18:00:00 22.7 8 Nordeste 23 Nordeste 0 -- -- 60
2018-06-01 17:00:00 24 8 Nordeste 20 Norte 0 -- -- 55
2018-06-01 16:00:00 23.3 9 Nordeste 20 Nordeste 0 -- -- 56
2018-06-01 15:00:00 22.6 7 Nordeste 25 Nordeste 0 -- -- 56
2018-06-01 14:00:00 22.6 6 Este 18 Nordeste 0 -- -- 57
2018-06-01 13:00:00 22.6 2 Norte 8 Sur 0 -- -- 63
2018-06-01 12:00:00 20.2 0 Calma 8 Noroeste 0 -- -- 73
2018-06-01 11:00:00 18.3 0 Calma 8 Noroeste 0 -- -- 82
2018-06-01 10:00:00 16.5 0 Calma 5 Noroeste 0 -- -- 90
2018-06-01 09:00:00 14.9 0 Calma 5 Nordeste 10.9 -- -- 96
2018-06-01 08:00:00 14.9 0 Calma 4 Sudoeste 3 -- -- 96
2018-06-01 07:00:00 14.9 0 Calma 7 Nordeste 0.5 -- -- 95
2018-06-01 06:00:00 14.9 0 Calma -- -- 0.1 -- -- 96
2018-06-01 05:00:00 14.9 0 Calma 5 Noroeste 0 -- -- 95
2018-06-01 04:00:00 15 3 Sudoeste 7 Sur 0.1 -- -- 96
2018-06-01 03:00:00 14.9 0 Calma -- -- 0 -- -- 95
2018-06-01 02:00:00 14.9 0 Calma 0 Calma 0.5 -- -- 94
2018-06-01 01:00:00 14.7 0 Calma 0 Calma 0 -- -- 94
2018-06-01 00:00:00 14.3 0 Calma 2 Sudeste 0 -- -- 92
2018-05-31 23:00:00 15.3 0 Calma 3 Sur 0 -- -- 90
2018-05-31 22:00:00 16.2 0 Calma 8 Sudeste 0 -- -- 83
2018-05-31 21:00:00 17.8 0 Calma 9 Nordeste 0 -- -- 75
2018-05-31 20:00:00 18.9 4 Sudeste 9 Sudeste 0 -- -- 75
2018-05-31 19:00:00 19.8 4 Nordeste 9 Nordeste 0 -- -- 69
2018-05-31 18:00:00 19.8 3 Este 10 Nordeste 0 -- -- 71
2018-05-31 17:00:00 19.3 2 Norte 12 Nordeste 0 -- -- 70
2018-05-31 16:00:00 19.3 3 Este 13 Nordeste 0 -- -- 73
2018-05-31 15:00:00 17.9 3 Nordeste 15 Norte 0 -- -- 79
2018-05-31 14:00:00 18.5 4 Noroeste 14 Sudeste 0 -- -- 69
2018-05-31 13:00:00 19.3 3 Sur 8 Sudoeste 0 -- -- 70
2018-05-31 12:00:00 18.7 2 Noroeste 8 Norte 0 -- -- 68
2018-05-31 11:00:00 17.9 0 Calma 5 Norte 0 -- -- 77
2018-05-31 10:00:00 16.6 0 Calma 4 Sudeste 0 -- -- 85
2018-05-31 09:00:00 15.2 0 Calma -- -- 0 -- -- 92
2018-05-31 08:00:00 14.5 0 Calma -- -- 0 -- -- 95
2018-05-31 07:00:00 14.2 0 Calma -- -- 0 -- -- 95
2018-05-31 06:00:00 14.1 0 Calma -- -- 0 -- -- 95
2018-05-31 05:00:00 14.3 0 Calma -- -- 0 -- -- 94
2018-05-31 04:00:00 14.3 0 Calma 0 Calma 0 -- -- 94
2018-05-31 03:00:00 14.3 0 Calma 4 Noroeste 0 -- -- 94
2018-05-31 02:00:00 14.5 0 Calma -- -- 0 -- -- 93
2018-05-31 01:00:00 14.6 0 Calma 3 Nordeste 0 -- -- 92
2018-05-31 00:00:00 15 0 Calma 11 Nordeste 0.1 -- -- 89
2018-05-30 23:00:00 15.3 2 Nordeste 13 Noroeste 0 -- -- 82
2018-05-30 22:00:00 15.9 0 Calma 12 Noroeste 0 -- -- 85
2018-05-30 21:00:00 16 0 Calma 13 Este 0 -- -- 88
2018-05-30 20:00:00 16.9 5 Nordeste 14 Sudeste 0 -- -- 84
2018-05-30 19:00:00 17.8 0 Calma 11 Sudoeste 0 -- -- 82
2018-05-30 18:00:00 18.7 3 Sudoeste 10 Oeste 0.1 -- -- 83
2018-05-30 17:00:00 17.8 3 Sur 7 Nordeste 1.3 -- -- 86
2018-05-30 16:00:00 18.2 5 Norte 19 Norte 0.2 -- -- 76
2018-05-30 15:00:00 19.6 9 Norte 17 Norte 0 -- -- 67
2018-05-30 14:00:00 19.8 5 Norte 9 Norte 0 -- -- 65
2018-05-30 13:00:00 19.2 0 Calma 8 Sudoeste 0 -- -- 75
2018-05-30 12:00:00 18.1 0 Calma 5 Sur 0 -- -- 80
2018-05-30 11:00:00 16.2 3 Noroeste 6 Norte 0 -- -- 88
2018-05-30 10:00:00 15 0 Calma 3 Este 0.5 -- -- 93
2018-05-30 09:00:00 14.3 0 Calma 0 Calma 0.1 -- -- 95
2018-05-30 08:00:00 14 0 Calma 0 Calma 0.3 -- -- 96
2018-05-30 07:00:00 13.8 0 Calma 0 Calma 0.1 -- -- 96
2018-05-30 06:00:00 14 0 Calma 0 Calma 0.1 -- -- 96
2018-05-30 05:00:00 14.3 0 Calma 3 Noroeste 0.4 -- -- 96
2018-05-30 04:00:00 14.5 0 Calma 3 Noroeste 0 -- -- 96
2018-05-30 03:00:00 14.5 0 Calma 4 Sudoeste 0 -- -- 96
2018-05-30 02:00:00 14.4 0 Calma 2 Sudeste 0.1 -- -- 96
2018-05-30 01:00:00 14.4 0 Calma 4 Noroeste 0.1 -- -- 96
2018-05-30 00:00:00 14.4 0 Calma 3 Nordeste 0 -- -- 96
2018-05-29 23:00:00 14.4 0 Calma 2 Sur 0 -- -- 95
2018-05-29 22:00:00 14.2 0 Calma 7 Sudoeste 0.1 -- -- 95
2018-05-29 21:00:00 14.8 0 Calma 3 Noroeste 2.8 -- -- 95
2018-05-29 20:00:00 14.7 0 Calma 24 Sudoeste 12.2 -- -- 93
2018-05-29 19:00:00 15.7 3 Sudoeste 14 Sur 7 -- -- 89
2018-05-29 18:00:00 18.3 0 Calma 13 Este 0.1 -- -- 83
2018-05-29 17:00:00 18.9 9 Norte 18 Norte 1.1 -- -- 80
2018-05-29 16:00:00 21.2 3 Este 17 Este 0.2 -- -- 73
2018-05-29 15:00:00 20.1 5 Nordeste 13 Este 0 -- -- 73
2018-05-29 14:00:00 19.8 2 Este 8 Sur 0 -- -- 72
2018-05-29 13:00:00 18.6 0 Calma 9 Sudeste 0 -- -- 73
2018-05-29 12:00:00 19.6 2 Norte 7 Noroeste 0 -- -- 70
2018-05-29 11:00:00 17.7 3 Sur 7 Sur 0 -- -- 76
2018-05-29 10:00:00 16.5 0 Calma 4 Este 0 -- -- 84
2018-05-29 09:00:00 15.1 0 Calma -- -- 0 -- -- 92
2018-05-29 08:00:00 14.3 0 Calma -- -- 0 -- -- 96
2018-05-29 07:00:00 14.1 0 Calma -- -- 0 -- -- 96
2018-05-29 06:00:00 14.1 0 Calma -- -- 0 -- -- 96
2018-05-29 05:00:00 14.1 0 Calma 3 Noroeste 0 -- -- 96
2018-05-29 04:00:00 14.1 0 Calma 0 Calma 0 -- -- 96
2018-05-29 03:00:00 14.3 0 Calma 0 Calma 0 -- -- 96
2018-05-29 02:00:00 14.2 0 Calma 3 Noroeste 0 -- -- 96
2018-05-29 01:00:00 14.3 0 Calma 0 Calma 0 -- -- 96
2018-05-29 00:00:00 14.4 0 Calma 3 Noroeste 0.1 -- -- 96
2018-05-28 23:00:00 14.5 0 Calma -- -- 0 -- -- 95
2018-05-28 22:00:00 14.5 0 Calma 4 Sudoeste 0.1 -- -- 95
2018-05-28 21:00:00 14.8 0 Calma 5 Noroeste 0.1 -- -- 93
2018-05-28 20:00:00 15.1 2 Sudoeste 6 Sudoeste 0.1 -- -- 93
2018-05-28 19:00:00 15.2 0 Calma 5 Este 0.3 -- -- 92
2018-05-28 18:00:00 15.9 2 Nordeste 6 Nordeste 0 -- -- 88
2018-05-28 17:00:00 15.8 0 Calma 10 Sudoeste 0.1 -- -- 89
2018-05-28 16:00:00 15.3 3 Sudoeste 9 Sudoeste 0.1 -- -- 92
2018-05-28 15:00:00 15.9 0 Calma 6 Sudeste 0.1 -- -- 92
2018-05-28 14:00:00 15.8 0 Calma 4 Sur 0.2 -- -- 92
2018-05-28 13:00:00 15.3 2 Este 6 Sudeste 0 -- -- 92
2018-05-28 12:00:00 15.2 0 Calma 6 Sudeste 0 -- -- 92
2018-05-28 11:00:00 14.7 0 Calma 6 Este 0 -- -- 93
2018-05-28 10:00:00 14.8 0 Calma 5 Sur 0.1 -- -- 93
2018-05-28 09:00:00 14.6 0 Calma 6 Sudoeste 0.5 -- -- 93
2018-05-28 08:00:00 14.3 3 Sur 8 Sur 2.9 -- -- 95
2018-05-28 07:00:00 14.3 0 Calma 3 Sudoeste 0.1 -- -- 95
2018-05-28 06:00:00 14.5 0 Calma 0 Calma 0.2 -- -- 95
2018-05-28 05:00:00 14.5 0 Calma 4 Sudoeste 0.6 -- -- 94
2018-05-28 04:00:00 14.7 0 Calma 5 Noroeste 0.4 -- -- 92
2018-05-28 03:00:00 15.1 0 Calma 9 Sudoeste 0 -- -- 89
2018-05-28 02:00:00 15.3 4 Sudoeste 6 Sur 0 -- -- 89
2018-05-28 01:00:00 15.4 3 Sur 5 Sur 0 -- -- 89
2018-05-28 00:00:00 16 0 Calma 9 Este 0 -- -- 84
2018-05-27 23:00:00 16.1 0 Calma 11 Nordeste 0 -- -- 84
2018-05-27 22:00:00 16.3 4 Nordeste 16 Norte 0.1 -- -- 81
2018-05-27 21:00:00 16.4 0 Calma 7 Este 0 -- -- 87
2018-05-27 20:00:00 16.7 0 Calma 12 Norte 0 -- -- 86
2018-05-27 19:00:00 17.1 0 Calma 8 Noroeste 0 -- -- 85
2018-05-27 18:00:00 17.5 0 Calma 13 Noroeste 0 -- -- 81
2018-05-27 17:00:00 17.4 5 Norte 14 Norte 0 -- -- 79
2018-05-27 16:00:00 17.9 2 Este 19 Noroeste 0 -- -- 78
2018-05-27 15:00:00 18.9 7 Norte 15 Norte 0 -- -- 74
2018-05-27 14:00:00 19.5 0 Calma 7 Noroeste 0 -- -- 73
2018-05-27 13:00:00 20 0 Calma 9 Noroeste 0 -- -- 73
2018-05-27 12:00:00 18.3 4 Noroeste 10 Noroeste 0 -- -- 77
2018-05-27 11:00:00 18 0 Calma 5 Nordeste 0 -- -- 82
2018-05-27 10:00:00 16.7 0 Calma 3 Noroeste 0 -- -- 88
2018-05-27 09:00:00 15.4 0 Calma 2 Noroeste 0 -- -- 93
2018-05-27 08:00:00 14.7 0 Calma 3 Norte 0 -- -- 95
2018-05-27 07:00:00 14.7 0 Calma 4 Nordeste 0 -- -- 95
2018-05-27 06:00:00 14.6 0 Calma 2 Nordeste 0 -- -- 95
2018-05-27 05:00:00 14.5 0 Calma 2 Este 0 -- -- 95
2018-05-27 04:00:00 14.5 0 Calma 3 Noroeste 0 -- -- 95
2018-05-27 03:00:00 15.4 0 Calma 5 Este 0 -- -- 95
2018-05-27 02:00:00 15.5 0 Calma 5 Noroeste 0 -- -- 95
2018-05-27 01:00:00 15.6 0 Calma 7 Noroeste 0 -- -- 95
2018-05-27 00:00:00 15.7 0 Calma 5 Noroeste 0.6 -- -- 94
2018-05-26 23:00:00 15.9 0 Calma 10 Sudoeste 1 -- -- 92
2018-05-26 22:00:00 16.7 0 Calma 8 Sudeste 0 -- -- 89
2018-05-26 21:00:00 17.5 2 Nordeste 13 Nordeste 0 -- -- 81
2018-05-26 20:00:00 18.7 4 Norte 8 Sudeste 0 -- -- 77
2018-05-26 19:00:00 18.8 3 Noroeste 32 Oeste 1.2 -- -- 83
2018-05-26 18:00:00 21.8 4 Nordeste 18 Sudeste 0 -- -- 52
2018-05-26 17:00:00 23.4 10 Sur 26 Sur 0 -- -- 45
2018-05-26 16:00:00 22.6 3 Noroeste 10 Noroeste 0 -- -- 57
2018-05-26 15:00:00 21.6 0 Calma 8 Noroeste 0 -- -- 64
2018-05-26 14:00:00 18.8 0 Calma 9 Norte 0 -- -- 69
2018-05-26 13:00:00 16.1 2 Sur 11 Norte 1.4 -- -- 93
2018-05-26 12:00:00 14.8 3 Este 9 Sudeste 9.4 -- -- 96
2018-05-26 11:00:00 15 0 Calma 10 Sudeste 4.4 -- -- 96
2018-05-26 10:00:00 15.4 0 Calma 6 Sudeste 4.3 -- -- 96
2018-05-26 09:00:00 15.5 2 Sudeste 6 Sudeste 0.1 -- -- 96
2018-05-26 08:00:00 15.5 0 Calma 5 Norte 1.4 -- -- 95
2018-05-26 07:00:00 15.4 0 Calma 7 Sur 0 -- -- 95
2018-05-26 06:00:00 15.3 2 Sur 7 Sudoeste 0 -- -- 95
2018-05-26 05:00:00 15.4 0 Calma 12 Noroeste 0 -- -- 95
2018-05-26 04:00:00 15.7 0 Calma 8 Nordeste 0.1 -- -- 94
2018-05-26 03:00:00 16.6 0 Calma 6 Sudoeste 0.2 -- -- 92
2018-05-26 02:00:00 17.3 2 Sur 7 Sudoeste 0 -- -- 88
2018-05-26 01:00:00 17.4 0 Calma 4 Sudoeste 0 -- -- 89
2018-05-26 00:00:00 18.1 0 Calma 5 Sudeste 0 -- -- 87
2018-05-25 23:00:00 18 0 Calma 5 Sudeste 0 -- -- 84
2018-05-25 22:00:00 18.6 0 Calma 7 Este 0 -- -- 79
2018-05-25 21:00:00 19.6 0 Calma 7 Sudeste 0 -- -- 72
2018-05-25 20:00:00 20.5 0 Calma 13 Nordeste 0 -- -- 67
2018-05-25 19:00:00 21 0 Calma 9 Norte 0 -- -- 67
2018-05-25 18:00:00 21.4 3 Nordeste 13 Norte 0 -- -- 63
2018-05-25 17:00:00 21.3 5 Nordeste 13 Este 0 -- -- 61
2018-05-25 16:00:00 21.7 7 Nordeste 15 Nordeste 0 -- -- 59
2018-05-25 15:00:00 22.7 3 Sudeste 12 Sudeste 0 -- -- 60
2018-05-25 14:00:00 20 3 Este 12 Sudeste 0 -- -- 68
2018-05-25 13:00:00 19.9 5 Norte 11 Nordeste 0 -- -- 68
2018-05-25 12:00:00 18.8 0 Calma 13 Noroeste 0 -- -- 83
2018-05-25 11:00:00 17 2 Oeste 18 Nordeste 0.5 -- -- 90
2018-05-25 10:00:00 17.4 0 Calma 4 Nordeste 0 -- -- 92
2018-05-25 09:00:00 16.7 2 Sur 6 Sudeste 0 -- -- 93
2018-05-25 08:00:00 16.4 2 Norte 4 Norte 0 -- -- 95
2018-05-25 07:00:00 16 0 Calma 3 Sudeste 0 -- -- 95
2018-05-25 06:00:00 15.9 0 Calma 4 Noroeste 0 -- -- 95
2018-05-25 05:00:00 15.9 0 Calma 5 Nordeste 0 -- -- 95
2018-05-25 04:00:00 16.3 0 Calma 3 Noroeste 0 -- -- 95
2018-05-25 03:00:00 16.5 0 Calma 3 Oeste 0 -- -- 95
2018-05-25 02:00:00 16.3 0 Calma 3 Norte 0 -- -- 95
2018-05-25 01:00:00 16.3 0 Calma 4 Sudoeste 0 -- -- 95
2018-05-25 00:00:00 16.5 0 Calma 4 Sudoeste 0.1 -- -- 94
2018-05-24 23:00:00 17.3 0 Calma 8 Noroeste 0 -- -- 93
2018-05-24 22:00:00 18.2 0 Calma 8 Sudeste 0 -- -- 90
2018-05-24 21:00:00 19.3 2 Este 9 Sudoeste 0.4 -- -- 88
2018-05-24 20:00:00 21.6 0 Calma 10 Norte 0 -- -- 70
2018-05-24 19:00:00 23 5 Norte 13 Nordeste 0 -- -- 60
2018-05-24 18:00:00 23.9 4 Nordeste 13 Nordeste 0 -- -- 57
2018-05-24 17:00:00 24.7 5 Nordeste 13 Nordeste 0 -- -- 52
2018-05-24 16:00:00 24.9 4 Norte 17 Norte 0 -- -- 50
2018-05-24 15:00:00 26.7 4 Noroeste 15 Oeste 0 -- -- 43
2018-05-24 14:00:00 25.1 4 Sudoeste 16 Noroeste 0 -- -- 45
2018-05-24 13:00:00 24 2 Noroeste 14 Noroeste 0 -- -- 50
2018-05-24 12:00:00 23.4 0 Calma 9 Noroeste 0 -- -- 52
2018-05-24 11:00:00 21.7 3 Norte 8 Sudeste 0 -- -- 64
2018-05-24 10:00:00 18.3 2 Nordeste 6 Norte 0 -- -- 82
2018-05-24 09:00:00 15.3 0 Calma 4 Sur 0 -- -- 95
2018-05-24 08:00:00 14.9 0 Calma 3 Noroeste 0 -- -- 96
2018-05-24 07:00:00 14.7 0 Calma 4 Nordeste 0 -- -- 96
2018-05-24 06:00:00 14.7 0 Calma 3 Sur 0 -- -- 96
2018-05-24 05:00:00 14.8 0 Calma 3 Noroeste 0 -- -- 95
2018-05-24 04:00:00 14.9 0 Calma 4 Sudoeste 0 -- -- 95
2018-05-24 03:00:00 14.9 0 Calma 4 Sur 0 -- -- 95
2018-05-24 02:00:00 14.9 0 Calma 6 Noroeste 0.2 -- -- 95
2018-05-24 01:00:00 15.1 0 Calma 4 Noroeste 0 -- -- 95
2018-05-24 00:00:00 15.1 0 Calma 3 Norte 0 -- -- 93
2018-05-23 23:00:00 15.9 0 Calma 3 Sudoeste 0 -- -- 92
2018-05-23 22:00:00 16.6 0 Calma 5 Sudoeste 0 -- -- 89
2018-05-23 21:00:00 18.2 0 Calma 3 Noroeste 0 -- -- 85
2018-05-23 20:00:00 19.1 0 Calma 3 Noroeste 0 -- -- 81
2018-05-23 19:00:00 19.3 0 Calma 10 Oeste 0 -- -- 75
2018-05-23 18:00:00 17.6 6 Noroeste 11 Noroeste 0.1 -- -- 87
2018-05-23 17:00:00 18.6 5 Noroeste 11 Noroeste 0.3 -- -- 72
2018-05-23 16:00:00 20.8 5 Noroeste 19 Oeste 0 -- -- 59
2018-05-23 15:00:00 23.1 0 Calma 9 Noroeste 0 -- -- 52
2018-05-23 14:00:00 22 0 Calma 10 Noroeste 0 -- -- 56
2018-05-23 13:00:00 20.8 6 Noroeste 15 Noroeste 0 -- -- 56
2018-05-23 12:00:00 22.1 0 Calma 6 Noroeste 0 -- -- 54
2018-05-23 11:00:00 18.7 2 Norte 6 Este 0 -- -- 63
2018-05-23 10:00:00 15.8 2 Sudeste 5 Sudeste 0 -- -- 78
2018-05-23 09:00:00 12.4 0 Calma 3 Sur 0 -- -- 92
2018-05-23 08:00:00 10.8 0 Calma 5 Norte 0 -- -- 96
2018-05-23 07:00:00 10 0 Calma 2 Noroeste 0 -- -- 96
2018-05-23 06:00:00 9.3 0 Calma 3 Noroeste 0 -- -- 96
2018-05-23 05:00:00 9.7 0 Calma 6 Norte 0 -- -- 96
2018-05-23 04:00:00 9.8 0 Calma 4 Norte 0 -- -- 95
2018-05-23 03:00:00 10.2 0 Calma 3 Noroeste 0 -- -- 95
2018-05-23 02:00:00 10.4 0 Calma 3 Sur 0 -- -- 95
2018-05-23 01:00:00 10.8 0 Calma 4 Noroeste 0 -- -- 93
2018-05-23 00:00:00 11.7 0 Calma 2 Sudoeste 0 -- -- 92
2018-05-22 23:00:00 12.8 0 Calma 4 Noroeste 0 -- -- 87
2018-05-22 22:00:00 14.8 0 Calma 4 Sudoeste 0 -- -- 79
2018-05-22 21:00:00 17.7 0 Calma 16 Sudeste 0 -- -- 60
2018-05-22 20:00:00 20.6 2 Sudeste 14 Norte 0 -- -- 49
2018-05-22 19:00:00 21.6 8 Norte 22 Norte 0 -- -- 47
2018-05-22 18:00:00 22.3 9 Norte 22 Norte 0 -- -- 45
2018-05-22 17:00:00 22.2 4 Norte 13 Nordeste 0 -- -- 44
2018-05-22 16:00:00 22.3 3 Norte 13 Norte 0 -- -- 45
2018-05-22 15:00:00 21.8 5 Norte 16 Norte 0 -- -- 47
2018-05-22 14:00:00 22.1 4 Nordeste 17 Nordeste 0 -- -- 48
2018-05-22 13:00:00 22 2 Sur 10 Sudoeste 0 -- -- 54
2018-05-22 12:00:00 19.3 2 Norte 7 Noroeste 0 -- -- 61
2018-05-22 11:00:00 15.7 0 Calma 5 Norte 0 -- -- 82
2018-05-22 10:00:00 12.5 0 Calma 6 Sur 0 -- -- 95
2018-05-22 09:00:00 11.6 0 Calma 4 Este 0 -- -- 97
2018-05-22 08:00:00 11.1 2 Sur 5 Sudoeste 0 -- -- 97
2018-05-22 07:00:00 11 2 Sur 4 Sudoeste 0 -- -- 97
2018-05-22 06:00:00 11.2 0 Calma 4 Nordeste 0 -- -- 97
2018-05-22 05:00:00 11.2 0 Calma 3 Nordeste 0 -- -- 97
2018-05-22 04:00:00 11.6 0 Calma 3 Nordeste 0 -- -- 97
2018-05-22 03:00:00 11.8 0 Calma 4 Nordeste 0 -- -- 97
2018-05-22 02:00:00 11.9 0 Calma 2 Noroeste 0 -- -- 96
2018-05-22 01:00:00 12.2 0 Calma 4 Noroeste 0 -- -- 95
2018-05-22 00:00:00 13.1 0 Calma 3 Noroeste 0 -- -- 95